sensor_id;sensor_type;location;lat;lon;timestamp;P1;durP1;ratioP1;P2;durP2;ratioP2
11034;SDS011;5571;48.110;-1.706;2022-10-16T00:01:05;5.07;;;2.23;;
11034;SDS011;5571;48.110;-1.706;2022-10-16T00:03:31;5.13;;;2.60;;
11034;SDS011;5571;48.110;-1.706;2022-10-16T00:05:58;12.80;;;3.23;;
11034;SDS011;5571;48.110;-1.706;2022-10-16T00:08:25;5.40;;;3.10;;
11034;SDS011;5571;48.110;-1.706;2022-10-16T00:10:50;8.07;;;3.10;;
11034;SDS011;5571;48.110;-1.706;2022-10-16T00:13:16;11.63;;;3.40;;
11034;SDS011;5571;48.110;-1.706;2022-10-16T00:15:43;5.93;;;3.27;;
11034;SDS011;5571;48.110;-1.706;2022-10-16T00:18:09;7.13;;;3.50;;
11034;SDS011;5571;48.110;-1.706;2022-10-16T00:20:35;8.40;;;3.70;;
11034;SDS011;5571;48.110;-1.706;2022-10-16T00:23:02;7.43;;;4.23;;
11034;SDS011;5571;48.110;-1.706;2022-10-16T00:25:28;6.23;;;4.10;;
11034;SDS011;5571;48.110;-1.706;2022-10-16T00:27:54;8.07;;;4.27;;
11034;SDS011;5571;48.110;-1.706;2022-10-16T00:30:19;11.57;;;4.33;;
11034;SDS011;5571;48.110;-1.706;2022-10-16T00:32:45;5.50;;;3.97;;
11034;SDS011;5571;48.110;-1.706;2022-10-16T00:35:10;12.70;;;4.90;;
11034;SDS011;5571;48.110;-1.706;2022-10-16T00:37:35;10.53;;;6.47;;
11034;SDS011;5571;48.110;-1.706;2022-10-16T00:40:01;6.17;;;4.93;;
11034;SDS011;5571;48.110;-1.706;2022-10-16T00:42:26;11.87;;;4.93;;
11034;SDS011;5571;48.110;-1.706;2022-10-16T00:44:53;9.80;;;5.90;;
11034;SDS011;5571;48.110;-1.706;2022-10-16T00:47:28;12.20;;;5.67;;
11034;SDS011;5571;48.110;-1.706;2022-10-16T00:52:59;13.00;;;6.13;;
11034;SDS011;5571;48.110;-1.706;2022-10-16T00:55:26;8.23;;;5.77;;
11034;SDS011;5571;48.110;-1.706;2022-10-16T00:57:55;10.87;;;5.73;;
11034;SDS011;5571;48.110;-1.706;2022-10-16T01:00:23;12.83;;;6.17;;
11034;SDS011;5571;48.110;-1.706;2022-10-16T01:02:52;8.67;;;5.87;;
11034;SDS011;5571;48.110;-1.706;2022-10-16T01:05:22;11.50;;;6.37;;
11034;SDS011;5571;48.110;-1.706;2022-10-16T01:08:14;13.00;;;6.23;;
11034;SDS011;5571;48.110;-1.706;2022-10-16T01:13:21;12.33;;;6.30;;
11034;SDS011;5571;48.110;-1.706;2022-10-16T01:15:54;10.40;;;5.63;;
11034;SDS011;5571;48.110;-1.706;2022-10-16T01:18:39;11.23;;;6.37;;
11034;SDS011;5571;48.110;-1.706;2022-10-16T01:21:14;14.17;;;6.37;;
11034;SDS011;5571;48.110;-1.706;2022-10-16T01:28:59;18.20;;;6.87;;
11034;SDS011;5571;48.110;-1.706;2022-10-16T01:31:32;13.83;;;6.27;;
11034;SDS011;5571;48.110;-1.706;2022-10-16T01:34:02;10.73;;;6.13;;
11034;SDS011;5571;48.110;-1.706;2022-10-16T01:36:57;13.80;;;6.47;;
11034;SDS011;5571;48.110;-1.706;2022-10-16T01:39:33;9.63;;;6.00;;
11034;SDS011;5571;48.110;-1.706;2022-10-16T01:42:03;12.20;;;5.57;;
11034;SDS011;5571;48.110;-1.706;2022-10-16T01:44:34;13.13;;;5.83;;
11034;SDS011;5571;48.110;-1.706;2022-10-16T01:47:02;14.97;;;6.23;;
11034;SDS011;5571;48.110;-1.706;2022-10-16T01:49:33;14.27;;;5.77;;
11034;SDS011;5571;48.110;-1.706;2022-10-16T01:52:02;15.63;;;5.73;;
11034;SDS011;5571;48.110;-1.706;2022-10-16T01:54:31;9.83;;;5.67;;
11034;SDS011;5571;48.110;-1.706;2022-10-16T01:57:00;16.80;;;5.50;;
11034;SDS011;5571;48.110;-1.706;2022-10-16T01:59:29;13.57;;;5.27;;
11034;SDS011;5571;48.110;-1.706;2022-10-16T02:01:58;10.03;;;5.20;;
11034;SDS011;5571;48.110;-1.706;2022-10-16T02:06:57;9.23;;;4.93;;
11034;SDS011;5571;48.110;-1.706;2022-10-16T02:09:23;16.00;;;5.40;;
11034;SDS011;5571;48.110;-1.706;2022-10-16T02:11:49;9.13;;;5.00;;
11034;SDS011;5571;48.110;-1.706;2022-10-16T02:14:19;14.43;;;5.27;;
11034;SDS011;5571;48.110;-1.706;2022-10-16T02:16:45;12.03;;;5.30;;
11034;SDS011;5571;48.110;-1.706;2022-10-16T02:19:12;12.63;;;5.40;;
11034;SDS011;5571;48.110;-1.706;2022-10-16T02:21:41;10.60;;;5.40;;
11034;SDS011;5571;48.110;-1.706;2022-10-16T02:24:24;14.43;;;5.43;;
11034;SDS011;5571;48.110;-1.706;2022-10-16T02:26:52;9.03;;;5.20;;
11034;SDS011;5571;48.110;-1.706;2022-10-16T02:29:42;9.60;;;4.73;;
11034;SDS011;5571;48.110;-1.706;2022-10-16T02:32:15;11.57;;;4.93;;
11034;SDS011;5571;48.110;-1.706;2022-10-16T02:34:44;10.33;;;4.73;;
11034;SDS011;5571;48.110;-1.706;2022-10-16T02:37:11;10.90;;;4.57;;
11034;SDS011;5571;48.110;-1.706;2022-10-16T02:39:38;8.70;;;4.80;;
11034;SDS011;5571;48.110;-1.706;2022-10-16T02:42:09;13.20;;;4.77;;
11034;SDS011;5571;48.110;-1.706;2022-10-16T02:44:36;9.30;;;4.90;;
11034;SDS011;5571;48.110;-1.706;2022-10-16T02:47:01;12.03;;;5.03;;
11034;SDS011;5571;48.110;-1.706;2022-10-16T02:49:27;11.97;;;5.13;;
11034;SDS011;5571;48.110;-1.706;2022-10-16T02:51:52;10.37;;;4.77;;
11034;SDS011;5571;48.110;-1.706;2022-10-16T02:54:18;10.33;;;4.87;;
11034;SDS011;5571;48.110;-1.706;2022-10-16T02:56:43;12.10;;;4.80;;
11034;SDS011;5571;48.110;-1.706;2022-10-16T02:59:08;15.23;;;4.80;;
11034;SDS011;5571;48.110;-1.706;2022-10-16T03:01:34;11.03;;;4.80;;
11034;SDS011;5571;48.110;-1.706;2022-10-16T03:03:59;17.93;;;5.80;;
11034;SDS011;5571;48.110;-1.706;2022-10-16T03:06:24;9.37;;;4.63;;
11034;SDS011;5571;48.110;-1.706;2022-10-16T03:08:50;13.57;;;5.20;;
11034;SDS011;5571;48.110;-1.706;2022-10-16T03:11:15;13.50;;;5.73;;
11034;SDS011;5571;48.110;-1.706;2022-10-16T03:13:40;12.13;;;5.60;;
11034;SDS011;5571;48.110;-1.706;2022-10-16T03:16:06;9.60;;;5.57;;
11034;SDS011;5571;48.110;-1.706;2022-10-16T03:18:31;12.50;;;5.73;;
11034;SDS011;5571;48.110;-1.706;2022-10-16T03:20:56;9.03;;;5.40;;
11034;SDS011;5571;48.110;-1.706;2022-10-16T03:23:22;16.90;;;6.43;;
11034;SDS011;5571;48.110;-1.706;2022-10-16T03:25:47;10.37;;;5.57;;
11034;SDS011;5571;48.110;-1.706;2022-10-16T03:28:12;11.20;;;5.83;;
11034;SDS011;5571;48.110;-1.706;2022-10-16T03:30:38;15.70;;;6.27;;
11034;SDS011;5571;48.110;-1.706;2022-10-16T03:33:04;14.90;;;5.90;;
11034;SDS011;5571;48.110;-1.706;2022-10-16T03:35:31;15.77;;;6.83;;
11034;SDS011;5571;48.110;-1.706;2022-10-16T03:37:57;12.40;;;6.67;;
11034;SDS011;5571;48.110;-1.706;2022-10-16T03:40:23;21.60;;;6.93;;
11034;SDS011;5571;48.110;-1.706;2022-10-16T03:42:48;15.90;;;6.53;;
11034;SDS011;5571;48.110;-1.706;2022-10-16T03:45:14;19.00;;;6.97;;
11034;SDS011;5571;48.110;-1.706;2022-10-16T03:47:39;17.83;;;6.63;;
11034;SDS011;5571;48.110;-1.706;2022-10-16T03:50:04;18.10;;;7.03;;
11034;SDS011;5571;48.110;-1.706;2022-10-16T03:52:30;11.93;;;6.70;;
11034;SDS011;5571;48.110;-1.706;2022-10-16T03:54:57;17.53;;;6.67;;
11034;SDS011;5571;48.110;-1.706;2022-10-16T03:57:22;13.27;;;6.80;;
11034;SDS011;5571;48.110;-1.706;2022-10-16T03:59:48;17.33;;;7.00;;
11034;SDS011;5571;48.110;-1.706;2022-10-16T04:02:13;12.90;;;6.83;;
11034;SDS011;5571;48.110;-1.706;2022-10-16T04:04:38;17.77;;;7.20;;
11034;SDS011;5571;48.110;-1.706;2022-10-16T04:07:04;19.67;;;7.10;;
11034;SDS011;5571;48.110;-1.706;2022-10-16T04:09:29;12.37;;;6.53;;
11034;SDS011;5571;48.110;-1.706;2022-10-16T04:11:55;17.07;;;7.10;;
11034;SDS011;5571;48.110;-1.706;2022-10-16T04:14:20;10.40;;;6.23;;
11034;SDS011;5571;48.110;-1.706;2022-10-16T04:16:46;11.37;;;6.30;;
11034;SDS011;5571;48.110;-1.706;2022-10-16T04:19:11;19.57;;;7.27;;
11034;SDS011;5571;48.110;-1.706;2022-10-16T04:21:36;18.90;;;7.37;;
11034;SDS011;5571;48.110;-1.706;2022-10-16T04:24:02;12.10;;;6.60;;
11034;SDS011;5571;48.110;-1.706;2022-10-16T04:26:28;11.20;;;6.63;;
11034;SDS011;5571;48.110;-1.706;2022-10-16T04:28:54;15.50;;;7.07;;
11034;SDS011;5571;48.110;-1.706;2022-10-16T04:31:19;12.20;;;6.70;;
11034;SDS011;5571;48.110;-1.706;2022-10-16T04:33:45;12.00;;;6.73;;
11034;SDS011;5571;48.110;-1.706;2022-10-16T04:36:10;20.83;;;7.83;;
11034;SDS011;5571;48.110;-1.706;2022-10-16T04:38:36;18.60;;;6.97;;
11034;SDS011;5571;48.110;-1.706;2022-10-16T04:41:02;13.27;;;6.67;;
11034;SDS011;5571;48.110;-1.706;2022-10-16T04:43:28;14.80;;;6.73;;
11034;SDS011;5571;48.110;-1.706;2022-10-16T04:45:53;15.63;;;6.73;;
11034;SDS011;5571;48.110;-1.706;2022-10-16T04:48:19;18.37;;;7.30;;
11034;SDS011;5571;48.110;-1.706;2022-10-16T04:50:45;13.70;;;7.80;;
11034;SDS011;5571;48.110;-1.706;2022-10-16T04:53:11;17.00;;;7.53;;
11034;SDS011;5571;48.110;-1.706;2022-10-16T04:55:36;13.30;;;6.90;;
11034;SDS011;5571;48.110;-1.706;2022-10-16T04:58:03;19.27;;;7.00;;
11034;SDS011;5571;48.110;-1.706;2022-10-16T05:00:28;14.27;;;6.77;;
11034;SDS011;5571;48.110;-1.706;2022-10-16T05:02:54;16.70;;;7.23;;
11034;SDS011;5571;48.110;-1.706;2022-10-16T05:05:19;13.97;;;7.30;;
11034;SDS011;5571;48.110;-1.706;2022-10-16T05:07:45;19.00;;;7.37;;
11034;SDS011;5571;48.110;-1.706;2022-10-16T05:10:11;18.17;;;7.17;;
11034;SDS011;5571;48.110;-1.706;2022-10-16T05:12:36;16.83;;;7.53;;
11034;SDS011;5571;48.110;-1.706;2022-10-16T05:15:02;17.43;;;7.63;;
11034;SDS011;5571;48.110;-1.706;2022-10-16T05:17:28;17.57;;;7.13;;
11034;SDS011;5571;48.110;-1.706;2022-10-16T05:19:54;14.33;;;7.20;;
11034;SDS011;5571;48.110;-1.706;2022-10-16T05:22:19;14.20;;;6.90;;
11034;SDS011;5571;48.110;-1.706;2022-10-16T05:24:44;17.73;;;7.57;;
11034;SDS011;5571;48.110;-1.706;2022-10-16T05:27:10;12.97;;;7.80;;
11034;SDS011;5571;48.110;-1.706;2022-10-16T05:29:36;17.43;;;8.17;;
11034;SDS011;5571;48.110;-1.706;2022-10-16T05:32:01;17.97;;;7.83;;
11034;SDS011;5571;48.110;-1.706;2022-10-16T05:34:27;14.60;;;7.67;;
11034;SDS011;5571;48.110;-1.706;2022-10-16T05:36:52;14.37;;;7.93;;
11034;SDS011;5571;48.110;-1.706;2022-10-16T05:39:17;17.50;;;8.87;;
11034;SDS011;5571;48.110;-1.706;2022-10-16T05:41:43;17.13;;;7.90;;
11034;SDS011;5571;48.110;-1.706;2022-10-16T05:44:09;14.37;;;8.30;;
11034;SDS011;5571;48.110;-1.706;2022-10-16T05:46:35;21.30;;;8.43;;
11034;SDS011;5571;48.110;-1.706;2022-10-16T05:49:00;13.47;;;7.93;;
11034;SDS011;5571;48.110;-1.706;2022-10-16T05:51:25;15.80;;;7.93;;
11034;SDS011;5571;48.110;-1.706;2022-10-16T05:53:51;15.93;;;8.70;;
11034;SDS011;5571;48.110;-1.706;2022-10-16T05:56:17;15.97;;;8.90;;
11034;SDS011;5571;48.110;-1.706;2022-10-16T05:58:43;17.73;;;8.77;;
11034;SDS011;5571;48.110;-1.706;2022-10-16T06:01:16;18.67;;;8.67;;
11034;SDS011;5571;48.110;-1.706;2022-10-16T06:03:43;19.97;;;9.90;;
11034;SDS011;5571;48.110;-1.706;2022-10-16T06:06:10;17.33;;;9.57;;
11034;SDS011;5571;48.110;-1.706;2022-10-16T06:08:40;17.87;;;9.20;;
11034;SDS011;5571;48.110;-1.706;2022-10-16T06:11:07;16.10;;;8.60;;
11034;SDS011;5571;48.110;-1.706;2022-10-16T06:13:34;22.30;;;9.77;;
11034;SDS011;5571;48.110;-1.706;2022-10-16T06:16:00;20.67;;;9.63;;
11034;SDS011;5571;48.110;-1.706;2022-10-16T06:18:27;22.07;;;9.80;;
11034;SDS011;5571;48.110;-1.706;2022-10-16T06:20:53;23.87;;;10.60;;
11034;SDS011;5571;48.110;-1.706;2022-10-16T06:23:19;21.93;;;10.20;;
11034;SDS011;5571;48.110;-1.706;2022-10-16T06:25:44;22.87;;;9.60;;
11034;SDS011;5571;48.110;-1.706;2022-10-16T06:28:09;20.83;;;9.77;;
11034;SDS011;5571;48.110;-1.706;2022-10-16T06:30:35;19.27;;;9.30;;
11034;SDS011;5571;48.110;-1.706;2022-10-16T06:33:00;25.87;;;12.00;;
11034;SDS011;5571;48.110;-1.706;2022-10-16T06:35:25;27.20;;;10.67;;
11034;SDS011;5571;48.110;-1.706;2022-10-16T06:37:52;23.10;;;10.67;;
11034;SDS011;5571;48.110;-1.706;2022-10-16T06:40:18;23.60;;;11.40;;
11034;SDS011;5571;48.110;-1.706;2022-10-16T06:42:43;23.10;;;11.43;;
11034;SDS011;5571;48.110;-1.706;2022-10-16T06:45:08;22.07;;;10.57;;
11034;SDS011;5571;48.110;-1.706;2022-10-16T06:47:34;22.77;;;10.40;;
11034;SDS011;5571;48.110;-1.706;2022-10-16T06:49:59;25.57;;;10.60;;
11034;SDS011;5571;48.110;-1.706;2022-10-16T06:52:27;25.97;;;11.70;;
11034;SDS011;5571;48.110;-1.706;2022-10-16T06:54:53;29.73;;;11.03;;
11034;SDS011;5571;48.110;-1.706;2022-10-16T06:57:18;32.00;;;11.40;;
11034;SDS011;5571;48.110;-1.706;2022-10-16T06:59:43;32.20;;;11.37;;
11034;SDS011;5571;48.110;-1.706;2022-10-16T07:02:09;25.90;;;11.03;;
11034;SDS011;5571;48.110;-1.706;2022-10-16T07:04:35;34.23;;;11.63;;
11034;SDS011;5571;48.110;-1.706;2022-10-16T07:07:01;24.13;;;10.53;;
11034;SDS011;5571;48.110;-1.706;2022-10-16T07:09:26;17.83;;;9.63;;
11034;SDS011;5571;48.110;-1.706;2022-10-16T07:11:51;25.00;;;10.73;;
11034;SDS011;5571;48.110;-1.706;2022-10-16T07:14:18;18.60;;;9.57;;
11034;SDS011;5571;48.110;-1.706;2022-10-16T07:16:44;14.77;;;8.23;;
11034;SDS011;5571;48.110;-1.706;2022-10-16T07:19:11;11.77;;;7.60;;
11034;SDS011;5571;48.110;-1.706;2022-10-16T07:21:38;15.80;;;7.53;;
11034;SDS011;5571;48.110;-1.706;2022-10-16T07:24:10;13.50;;;6.63;;
11034;SDS011;5571;48.110;-1.706;2022-10-16T07:26:38;12.27;;;6.33;;
11034;SDS011;5571;48.110;-1.706;2022-10-16T07:29:04;11.00;;;7.00;;
11034;SDS011;5571;48.110;-1.706;2022-10-16T07:31:31;13.60;;;6.37;;
11034;SDS011;5571;48.110;-1.706;2022-10-16T07:33:58;10.77;;;5.50;;
11034;SDS011;5571;48.110;-1.706;2022-10-16T07:36:26;11.90;;;5.53;;
11034;SDS011;5571;48.110;-1.706;2022-10-16T07:38:51;5.57;;;4.60;;
11034;SDS011;5571;48.110;-1.706;2022-10-16T07:41:18;8.53;;;4.30;;
11034;SDS011;5571;48.110;-1.706;2022-10-16T07:43:45;10.23;;;4.07;;
11034;SDS011;5571;48.110;-1.706;2022-10-16T07:46:12;3.83;;;3.27;;
11034;SDS011;5571;48.110;-1.706;2022-10-16T07:48:38;3.47;;;3.17;;
11034;SDS011;5571;48.110;-1.706;2022-10-16T07:51:04;8.93;;;3.60;;
11034;SDS011;5571;48.110;-1.706;2022-10-16T07:53:30;5.83;;;2.93;;
11034;SDS011;5571;48.110;-1.706;2022-10-16T07:56:06;4.03;;;2.13;;
11034;SDS011;5571;48.110;-1.706;2022-10-16T07:58:32;5.90;;;2.50;;
11034;SDS011;5571;48.110;-1.706;2022-10-16T08:01:05;5.20;;;2.13;;
11034;SDS011;5571;48.110;-1.706;2022-10-16T08:03:32;3.10;;;2.00;;
11034;SDS011;5571;48.110;-1.706;2022-10-16T08:05:58;5.47;;;2.70;;
11034;SDS011;5571;48.110;-1.706;2022-10-16T08:08:25;3.43;;;2.00;;
11034;SDS011;5571;48.110;-1.706;2022-10-16T08:10:51;5.50;;;1.97;;
11034;SDS011;5571;48.110;-1.706;2022-10-16T08:13:16;4.60;;;2.07;;
11034;SDS011;5571;48.110;-1.706;2022-10-16T08:15:42;4.90;;;1.90;;
11034;SDS011;5571;48.110;-1.706;2022-10-16T08:18:08;3.87;;;1.80;;
11034;SDS011;5571;48.110;-1.706;2022-10-16T08:20:35;3.43;;;1.80;;
11034;SDS011;5571;48.110;-1.706;2022-10-16T08:23:00;4.33;;;1.97;;
11034;SDS011;5571;48.110;-1.706;2022-10-16T08:25:26;6.40;;;1.87;;
11034;SDS011;5571;48.110;-1.706;2022-10-16T08:27:51;5.43;;;2.23;;
11034;SDS011;5571;48.110;-1.706;2022-10-16T08:30:17;4.13;;;1.87;;
11034;SDS011;5571;48.110;-1.706;2022-10-16T08:32:44;2.73;;;1.97;;
11034;SDS011;5571;48.110;-1.706;2022-10-16T08:35:10;2.70;;;1.70;;
11034;SDS011;5571;48.110;-1.706;2022-10-16T08:37:36;5.30;;;2.00;;
11034;SDS011;5571;48.110;-1.706;2022-10-16T08:40:01;3.10;;;1.70;;
11034;SDS011;5571;48.110;-1.706;2022-10-16T08:50:31;4.27;;;1.80;;
11034;SDS011;5571;48.110;-1.706;2022-10-16T08:53:01;4.47;;;1.50;;
11034;SDS011;5571;48.110;-1.706;2022-10-16T08:55:46;3.43;;;1.63;;
11034;SDS011;5571;48.110;-1.706;2022-10-16T08:58:22;4.57;;;1.50;;
11034;SDS011;5571;48.110;-1.706;2022-10-16T09:00:56;4.07;;;1.20;;
11034;SDS011;5571;48.110;-1.706;2022-10-16T09:14:33;2.63;;;1.20;;
11034;SDS011;5571;48.110;-1.706;2022-10-16T09:22:40;3.50;;;1.40;;
11034;SDS011;5571;48.110;-1.706;2022-10-16T09:25:13;2.27;;;1.00;;
11034;SDS011;5571;48.110;-1.706;2022-10-16T09:27:45;4.63;;;1.10;;
11034;SDS011;5571;48.110;-1.706;2022-10-16T09:30:14;5.47;;;1.70;;
11034;SDS011;5571;48.110;-1.706;2022-10-16T09:32:44;5.10;;;1.30;;
11034;SDS011;5571;48.110;-1.706;2022-10-16T09:35:18;4.20;;;1.53;;
11034;SDS011;5571;48.110;-1.706;2022-10-16T09:37:47;3.77;;;1.40;;
11034;SDS011;5571;48.110;-1.706;2022-10-16T09:40:26;4.23;;;1.00;;
11034;SDS011;5571;48.110;-1.706;2022-10-16T09:43:18;2.53;;;1.10;;
11034;SDS011;5571;48.110;-1.706;2022-10-16T09:46:06;6.23;;;1.30;;
11034;SDS011;5571;48.110;-1.706;2022-10-16T09:48:36;5.00;;;1.43;;
11034;SDS011;5571;48.110;-1.706;2022-10-16T09:51:19;4.73;;;1.00;;
11034;SDS011;5571;48.110;-1.706;2022-10-16T09:53:53;3.20;;;1.20;;
11034;SDS011;5571;48.110;-1.706;2022-10-16T09:56:42;3.60;;;1.23;;
11034;SDS011;5571;48.110;-1.706;2022-10-16T09:59:11;4.10;;;1.10;;
11034;SDS011;5571;48.110;-1.706;2022-10-16T10:04:15;3.03;;;1.03;;
11034;SDS011;5571;48.110;-1.706;2022-10-16T10:06:43;2.67;;;1.03;;
11034;SDS011;5571;48.110;-1.706;2022-10-16T10:12:02;4.63;;;1.57;;
11034;SDS011;5571;48.110;-1.706;2022-10-16T10:17:30;4.97;;;1.33;;
11034;SDS011;5571;48.110;-1.706;2022-10-16T10:20:00;6.20;;;1.20;;
11034;SDS011;5571;48.110;-1.706;2022-10-16T10:22:41;1.90;;;1.20;;
11034;SDS011;5571;48.110;-1.706;2022-10-16T10:27:45;3.27;;;1.87;;
11034;SDS011;5571;48.110;-1.706;2022-10-16T10:30:22;4.13;;;1.50;;
11034;SDS011;5571;48.110;-1.706;2022-10-16T10:39:04;5.87;;;1.33;;
11034;SDS011;5571;48.110;-1.706;2022-10-16T10:47:01;3.43;;;2.23;;
11034;SDS011;5571;48.110;-1.706;2022-10-16T10:50:04;5.73;;;2.40;;
11034;SDS011;5571;48.110;-1.706;2022-10-16T10:55:49;5.30;;;1.30;;
11034;SDS011;5571;48.110;-1.706;2022-10-16T11:07:09;5.00;;;1.50;;
11034;SDS011;5571;48.110;-1.706;2022-10-16T11:09:49;5.47;;;1.63;;
11034;SDS011;5571;48.110;-1.706;2022-10-16T11:12:20;6.83;;;1.70;;
11034;SDS011;5571;48.110;-1.706;2022-10-16T11:17:42;5.20;;;1.83;;
11034;SDS011;5571;48.110;-1.706;2022-10-16T11:20:17;6.17;;;1.33;;
11034;SDS011;5571;48.110;-1.706;2022-10-16T11:22:54;3.97;;;1.53;;
11034;SDS011;5571;48.110;-1.706;2022-10-16T11:25:26;7.10;;;1.73;;
11034;SDS011;5571;48.110;-1.706;2022-10-16T11:27:56;6.67;;;1.50;;
11034;SDS011;5571;48.110;-1.706;2022-10-16T11:30:28;15.37;;;2.27;;
11034;SDS011;5571;48.110;-1.706;2022-10-16T11:33:57;8.13;;;2.20;;
11034;SDS011;5571;48.110;-1.706;2022-10-16T11:36:02;12.00;;;2.43;;
11034;SDS011;5571;48.110;-1.706;2022-10-16T11:38:41;8.77;;;4.63;;
11034;SDS011;5571;48.110;-1.706;2022-10-16T11:44:13;6.73;;;3.30;;
11034;SDS011;5571;48.110;-1.706;2022-10-16T11:46:52;6.30;;;2.77;;
11034;SDS011;5571;48.110;-1.706;2022-10-16T11:49:40;5.13;;;2.50;;
11034;SDS011;5571;48.110;-1.706;2022-10-16T11:54:47;5.37;;;2.40;;
11034;SDS011;5571;48.110;-1.706;2022-10-16T11:57:19;6.17;;;2.33;;
11034;SDS011;5571;48.110;-1.706;2022-10-16T11:59:50;6.17;;;2.20;;
11034;SDS011;5571;48.110;-1.706;2022-10-16T12:08:03;3.87;;;2.60;;
11034;SDS011;5571;48.110;-1.706;2022-10-16T12:10:30;4.97;;;2.97;;
11034;SDS011;5571;48.110;-1.706;2022-10-16T12:13:02;3.73;;;2.33;;
11034;SDS011;5571;48.110;-1.706;2022-10-16T12:15:47;7.20;;;2.30;;
11034;SDS011;5571;48.110;-1.706;2022-10-16T12:18:22;6.63;;;2.20;;
11034;SDS011;5571;48.110;-1.706;2022-10-16T12:20:58;5.30;;;2.23;;
11034;SDS011;5571;48.110;-1.706;2022-10-16T12:23:29;4.60;;;2.33;;
11034;SDS011;5571;48.110;-1.706;2022-10-16T12:25:56;6.33;;;3.00;;
11034;SDS011;5571;48.110;-1.706;2022-10-16T12:28:27;7.37;;;2.77;;
11034;SDS011;5571;48.110;-1.706;2022-10-16T12:33:30;33.43;;;23.03;;
11034;SDS011;5571;48.110;-1.706;2022-10-16T12:36:00;36.73;;;23.63;;
11034;SDS011;5571;48.110;-1.706;2022-10-16T12:41:10;16.83;;;10.40;;
11034;SDS011;5571;48.110;-1.706;2022-10-16T12:43:44;9.30;;;5.20;;
11034;SDS011;5571;48.110;-1.706;2022-10-16T12:48:41;19.37;;;11.37;;
11034;SDS011;5571;48.110;-1.706;2022-10-16T12:58:59;5.03;;;3.17;;
11034;SDS011;5571;48.110;-1.706;2022-10-16T13:07:30;5.00;;;3.10;;
11034;SDS011;5571;48.110;-1.706;2022-10-16T13:15:35;5.00;;;2.40;;
11034;SDS011;5571;48.110;-1.706;2022-10-16T13:18:30;6.43;;;2.80;;
11034;SDS011;5571;48.110;-1.706;2022-10-16T13:27:01;4.53;;;2.60;;
11034;SDS011;5571;48.110;-1.706;2022-10-16T13:29:33;4.73;;;2.80;;
11034;SDS011;5571;48.110;-1.706;2022-10-16T13:31:59;4.13;;;3.00;;
11034;SDS011;5571;48.110;-1.706;2022-10-16T13:34:32;4.70;;;3.33;;
11034;SDS011;5571;48.110;-1.706;2022-10-16T13:36:57;4.57;;;3.20;;
11034;SDS011;5571;48.110;-1.706;2022-10-16T13:39:30;5.87;;;2.90;;
11034;SDS011;5571;48.110;-1.706;2022-10-16T13:42:03;3.30;;;3.00;;
11034;SDS011;5571;48.110;-1.706;2022-10-16T13:44:36;6.47;;;3.37;;
11034;SDS011;5571;48.110;-1.706;2022-10-16T13:47:11;4.68;;;2.85;;
11034;SDS011;5571;48.110;-1.706;2022-10-16T13:49:41;3.83;;;3.10;;
11034;SDS011;5571;48.110;-1.706;2022-10-16T13:52:15;4.57;;;3.20;;
11034;SDS011;5571;48.110;-1.706;2022-10-16T13:54:43;4.40;;;3.03;;
11034;SDS011;5571;48.110;-1.706;2022-10-16T13:57:11;3.42;;;2.72;;
11034;SDS011;5571;48.110;-1.706;2022-10-16T13:59:38;4.53;;;2.85;;
11034;SDS011;5571;48.110;-1.706;2022-10-16T14:02:22;4.57;;;2.83;;
11034;SDS011;5571;48.110;-1.706;2022-10-16T14:05:00;5.25;;;3.00;;
11034;SDS011;5571;48.110;-1.706;2022-10-16T14:07:28;7.05;;;4.35;;
11034;SDS011;5571;48.110;-1.706;2022-10-16T14:10:01;6.72;;;4.80;;
11034;SDS011;5571;48.110;-1.706;2022-10-16T14:12:29;5.88;;;4.72;;
11034;SDS011;5571;48.110;-1.706;2022-10-16T14:14:54;5.10;;;3.88;;
11034;SDS011;5571;48.110;-1.706;2022-10-16T14:17:23;3.58;;;3.10;;
11034;SDS011;5571;48.110;-1.706;2022-10-16T14:19:52;2.75;;;2.55;;
11034;SDS011;5571;48.110;-1.706;2022-10-16T14:22:30;1.95;;;1.85;;
11034;SDS011;5571;48.110;-1.706;2022-10-16T14:24:59;1.95;;;1.80;;
11034;SDS011;5571;48.110;-1.706;2022-10-16T14:27:32;2.42;;;1.50;;
11034;SDS011;5571;48.110;-1.706;2022-10-16T14:30:21;2.83;;;1.90;;
11034;SDS011;5571;48.110;-1.706;2022-10-16T14:33:00;3.92;;;1.90;;
11034;SDS011;5571;48.110;-1.706;2022-10-16T14:35:45;1.52;;;1.35;;
11034;SDS011;5571;48.110;-1.706;2022-10-16T14:38:16;3.97;;;2.20;;
11034;SDS011;5571;48.110;-1.706;2022-10-16T14:40:46;3.38;;;1.88;;
11034;SDS011;5571;48.110;-1.706;2022-10-16T14:43:14;2.10;;;2.00;;
11034;SDS011;5571;48.110;-1.706;2022-10-16T14:45:51;3.40;;;2.42;;
11034;SDS011;5571;48.110;-1.706;2022-10-16T14:48:19;3.47;;;1.98;;
11034;SDS011;5571;48.110;-1.706;2022-10-16T14:50:45;3.65;;;2.42;;
11034;SDS011;5571;48.110;-1.706;2022-10-16T14:53:11;2.38;;;2.22;;
11034;SDS011;5571;48.110;-1.706;2022-10-16T14:55:37;2.05;;;1.90;;
11034;SDS011;5571;48.110;-1.706;2022-10-16T14:58:05;2.30;;;2.20;;
11034;SDS011;5571;48.110;-1.706;2022-10-16T15:00:30;2.25;;;2.10;;
11034;SDS011;5571;48.110;-1.706;2022-10-16T15:02:56;1.60;;;1.50;;
11034;SDS011;5571;48.110;-1.706;2022-10-16T15:05:25;2.22;;;1.73;;
11034;SDS011;5571;48.110;-1.706;2022-10-16T15:07:53;1.95;;;1.83;;
11034;SDS011;5571;48.110;-1.706;2022-10-16T15:10:20;5.22;;;2.10;;
11034;SDS011;5571;48.110;-1.706;2022-10-16T15:12:46;2.38;;;2.20;;
11034;SDS011;5571;48.110;-1.706;2022-10-16T15:17:52;2.05;;;1.90;;
11034;SDS011;5571;48.110;-1.706;2022-10-16T15:20:21;1.98;;;1.88;;
11034;SDS011;5571;48.110;-1.706;2022-10-16T15:22:47;4.43;;;3.90;;
11034;SDS011;5571;48.110;-1.706;2022-10-16T15:28:10;1.92;;;1.83;;
11034;SDS011;5571;48.110;-1.706;2022-10-16T15:30:36;3.13;;;2.03;;
11034;SDS011;5571;48.110;-1.706;2022-10-16T15:33:03;7.03;;;2.08;;
11034;SDS011;5571;48.110;-1.706;2022-10-16T15:35:29;2.42;;;1.50;;
11034;SDS011;5571;48.110;-1.706;2022-10-16T15:37:54;2.83;;;1.67;;
11034;SDS011;5571;48.110;-1.706;2022-10-16T15:40:21;2.20;;;1.88;;
11034;SDS011;5571;48.110;-1.706;2022-10-16T15:42:47;2.72;;;2.00;;
11034;SDS011;5571;48.110;-1.706;2022-10-16T15:45:13;3.88;;;1.67;;
11034;SDS011;5571;48.110;-1.706;2022-10-16T15:47:42;2.45;;;1.98;;
11034;SDS011;5571;48.110;-1.706;2022-10-16T15:50:11;2.03;;;1.70;;
11034;SDS011;5571;48.110;-1.706;2022-10-16T15:52:38;3.78;;;2.03;;
11034;SDS011;5571;48.110;-1.706;2022-10-16T15:55:05;2.20;;;1.92;;
11034;SDS011;5571;48.110;-1.706;2022-10-16T15:57:35;2.20;;;2.00;;
11034;SDS011;5571;48.110;-1.706;2022-10-16T16:00:03;2.00;;;1.90;;
11034;SDS011;5571;48.110;-1.706;2022-10-16T16:02:51;2.20;;;2.10;;
11034;SDS011;5571;48.110;-1.706;2022-10-16T16:05:18;4.22;;;2.85;;
11034;SDS011;5571;48.110;-1.706;2022-10-16T16:07:44;2.72;;;2.53;;
11034;SDS011;5571;48.110;-1.706;2022-10-16T16:10:10;3.20;;;2.10;;
11034;SDS011;5571;48.110;-1.706;2022-10-16T16:12:36;3.30;;;2.22;;
11034;SDS011;5571;48.110;-1.706;2022-10-16T16:15:03;4.43;;;2.60;;
11034;SDS011;5571;48.110;-1.706;2022-10-16T16:17:30;2.42;;;2.22;;
11034;SDS011;5571;48.110;-1.706;2022-10-16T16:19:56;2.97;;;2.47;;
11034;SDS011;5571;48.110;-1.706;2022-10-16T16:22:21;2.70;;;2.50;;
11034;SDS011;5571;48.110;-1.706;2022-10-16T16:24:46;2.88;;;2.20;;
11034;SDS011;5571;48.110;-1.706;2022-10-16T16:27:12;3.03;;;2.75;;
11034;SDS011;5571;48.110;-1.706;2022-10-16T16:29:38;3.38;;;2.72;;
11034;SDS011;5571;48.110;-1.706;2022-10-16T16:32:04;5.25;;;2.90;;
11034;SDS011;5571;48.110;-1.706;2022-10-16T16:34:29;6.00;;;3.65;;
11034;SDS011;5571;48.110;-1.706;2022-10-16T16:36:55;8.77;;;3.40;;
11034;SDS011;5571;48.110;-1.706;2022-10-16T16:39:21;5.95;;;3.72;;
11034;SDS011;5571;48.110;-1.706;2022-10-16T16:41:47;5.78;;;4.75;;
11034;SDS011;5571;48.110;-1.706;2022-10-16T16:44:13;6.43;;;5.43;;
11034;SDS011;5571;48.110;-1.706;2022-10-16T16:46:40;9.98;;;5.00;;
11034;SDS011;5571;48.110;-1.706;2022-10-16T16:49:08;6.53;;;4.22;;
11034;SDS011;5571;48.110;-1.706;2022-10-16T16:51:35;4.57;;;3.50;;
11034;SDS011;5571;48.110;-1.706;2022-10-16T16:54:01;6.63;;;3.83;;
11034;SDS011;5571;48.110;-1.706;2022-10-16T16:56:26;4.85;;;4.07;;